createdAt,value
2018-11-23T00:00:26.081Z,45.50
2018-11-23T00:01:29.724Z,62.27
2018-11-23T00:02:33.373Z,57.20
2018-11-23T00:03:36.985Z,52.70
2018-11-23T00:04:40.905Z,46.65
2018-11-23T00:05:44.550Z,57.43
2018-11-23T00:07:03.289Z,49.90
2018-11-23T00:08:06.993Z,44.85
2018-11-23T00:09:10.602Z,51.85
2018-11-23T00:10:16.524Z,56.28
2018-11-23T00:11:20.140Z,58.60
2018-11-23T00:12:23.752Z,60.30
2018-11-23T00:13:27.364Z,62.98
2018-11-23T00:14:31.129Z,49.90
2018-11-23T00:15:34.791Z,54.58
2018-11-23T00:16:38.606Z,53.90
2018-11-23T00:17:42.222Z,50.88
2018-11-23T00:18:45.869Z,50.73
2018-11-23T00:19:49.509Z,80.00
2018-11-23T00:20:53.149Z,60.33
2018-11-23T00:21:56.899Z,85.05
2018-11-23T00:23:00.516Z,55.30
2018-11-23T00:24:04.149Z,62.50
2018-11-23T00:25:09.451Z,80.72
2018-11-23T00:26:13.069Z,191.28
2018-11-23T00:27:16.811Z,70.78
2018-11-23T00:28:20.460Z,76.12
2018-11-23T00:29:24.092Z,126.47
2018-11-23T00:30:29.143Z,60.73
2018-11-23T00:31:32.847Z,69.03
2018-11-23T00:32:36.501Z,78.15
2018-11-23T00:33:40.126Z,95.97
2018-11-23T00:34:43.804Z,77.00
2018-11-23T00:35:47.560Z,57.05
2018-11-23T00:36:51.624Z,78.42
2018-11-23T00:37:55.809Z,54.70
2018-11-23T00:38:59.468Z,64.85
2018-11-23T00:40:03.182Z,61.55
2018-11-23T00:41:06.939Z,66.12
2018-11-23T00:42:10.795Z,60.67
2018-11-23T00:43:14.441Z,63.75
2018-11-23T00:44:18.095Z,62.48
2018-11-23T00:45:22.316Z,56.10
2018-11-23T00:46:26.016Z,62.30
2018-11-23T00:47:29.684Z,62.25
2018-11-23T00:48:33.318Z,56.28
2018-11-23T00:49:36.963Z,55.12
2018-11-23T00:50:40.581Z,67.12
2018-11-23T00:51:44.268Z,60.90
2018-11-23T00:52:48.337Z,67.37
2018-11-23T00:53:52.008Z,64.85
2018-11-23T00:54:55.653Z,64.82
2018-11-23T00:55:59.301Z,66.47
2018-11-23T00:57:02.953Z,66.60
2018-11-23T00:58:06.568Z,67.62
2018-11-23T00:59:10.199Z,60.55
2018-11-23T01:00:16.470Z,63.92
2018-11-23T01:01:20.239Z,66.30
2018-11-23T01:02:23.904Z,62.38
2018-11-23T01:03:27.579Z,64.92
2018-11-23T01:04:31.591Z,63.63
2018-11-23T01:05:35.243Z,67.05
2018-11-23T01:06:38.887Z,64.05
2018-11-23T01:07:43.147Z,69.42
2018-11-23T01:08:46.769Z,68.97
2018-11-23T01:09:50.403Z,64.03
2018-11-23T01:10:54.053Z,75.55
2018-11-23T01:11:57.749Z,66.10
2018-11-23T01:13:01.381Z,71.00
2018-11-23T01:14:05.184Z,71.30
2018-11-23T01:15:09.426Z,67.45
2018-11-23T01:16:13.061Z,68.12
2018-11-23T01:17:16.704Z,70.10
2018-11-23T01:18:20.327Z,70.72
2018-11-23T01:19:23.929Z,71.53
2018-11-23T01:20:28.098Z,73.97
2018-11-23T01:21:31.716Z,69.55
2018-11-23T01:22:35.344Z,68.22
2018-11-23T01:23:38.966Z,79.97
2018-11-23T01:24:42.597Z,74.53
2018-11-23T01:25:46.294Z,69.20
2018-11-23T01:26:49.960Z,76.28
2018-11-23T01:27:54.472Z,73.78
2018-11-23T01:28:58.130Z,70.45
2018-11-23T01:30:01.789Z,77.12
2018-11-23T01:31:05.442Z,79.67
2018-11-23T01:32:09.178Z,75.85
2018-11-23T01:33:12.838Z,89.15
2018-11-23T01:34:16.477Z,68.62
2018-11-23T01:35:20.145Z,70.87
2018-11-23T01:36:23.890Z,80.32
2018-11-23T01:37:27.542Z,72.62
2018-11-23T01:38:31.203Z,82.95
2018-11-23T01:39:35.028Z,67.30
2018-11-23T01:40:38.812Z,72.42
2018-11-23T01:41:42.387Z,77.05
2018-11-23T01:42:46.513Z,74.58
2018-11-23T01:43:50.225Z,77.82
2018-11-23T01:44:53.844Z,74.80
2018-11-23T01:45:57.523Z,73.75
2018-11-23T01:47:01.140Z,78.40
2018-11-23T01:48:05.029Z,82.27
2018-11-23T01:49:08.693Z,79.92
2018-11-23T01:50:14.532Z,83.07
2018-11-23T01:51:18.389Z,76.53
2018-11-23T01:52:22.025Z,87.55
2018-11-23T01:53:25.692Z,75.85
2018-11-23T01:54:29.462Z,81.65
2018-11-23T01:55:33.040Z,85.75
2018-11-23T01:56:36.736Z,84.10
2018-11-23T01:57:41.109Z,70.25
2018-11-23T01:58:44.735Z,85.92
2018-11-23T01:59:48.420Z,79.97
2018-11-23T02:00:52.100Z,78.70
2018-11-23T02:01:55.825Z,91.32
2018-11-23T02:02:59.437Z,81.92
2018-11-23T02:04:03.060Z,82.10
2018-11-23T02:05:07.164Z,82.97
2018-11-23T02:06:10.742Z,82.75
2018-11-23T02:07:14.388Z,89.62
2018-11-23T02:08:18.040Z,75.75
2018-11-23T02:09:21.673Z,91.05
2018-11-23T02:10:25.316Z,92.70
2018-11-23T02:11:28.977Z,81.57
2018-11-23T02:12:32.640Z,80.15
2018-11-23T02:13:36.285Z,86.95
2018-11-23T02:14:39.981Z,86.87
2018-11-23T02:15:43.619Z,78.37
2018-11-23T02:16:47.337Z,82.92
2018-11-23T02:17:51.315Z,98.80
2018-11-23T02:18:54.929Z,103.02
2018-11-23T02:19:58.621Z,90.72
2018-11-23T02:21:02.272Z,98.65
2018-11-23T02:22:05.931Z,93.30
2018-11-23T02:23:10.372Z,103.67
2018-11-23T02:24:14.185Z,97.47
2018-11-23T02:25:17.896Z,100.72
2018-11-23T02:26:21.538Z,88.92
2018-11-23T02:27:25.253Z,91.28
2018-11-23T02:28:28.936Z,94.32
2018-11-23T02:29:32.647Z,92.40
2018-11-23T02:30:36.458Z,95.97
2018-11-23T02:31:40.060Z,123.40
2018-11-23T02:32:43.989Z,104.23
2018-11-23T02:33:48.129Z,99.90
2018-11-23T02:34:51.988Z,103.95
2018-11-23T02:35:55.643Z,105.87
2018-11-23T02:36:59.363Z,99.58
2018-11-23T02:38:02.994Z,95.90
2018-11-23T02:39:07.644Z,97.90
2018-11-23T02:40:12.504Z,97.12
2018-11-23T02:41:16.156Z,101.78
2018-11-23T02:42:19.897Z,103.60
2018-11-23T02:43:23.720Z,97.22
2018-11-23T02:44:34.192Z,110.45
2018-11-23T02:45:38.119Z,108.03
2018-11-23T02:46:41.756Z,115.32
2018-11-23T02:47:46.072Z,104.80
2018-11-23T02:48:49.710Z,102.78
2018-11-23T02:49:53.334Z,112.08
2018-11-23T02:50:56.945Z,140.97
2018-11-23T02:52:00.557Z,113.95
2018-11-23T02:53:04.249Z,110.15
2018-11-23T02:54:07.834Z,115.42
2018-11-23T02:55:13.584Z,108.63
2018-11-23T02:56:17.539Z,108.72
2018-11-23T02:57:21.163Z,110.92
2018-11-23T02:58:24.796Z,110.15
2018-11-23T02:59:28.443Z,113.45
2018-11-23T03:00:32.091Z,115.95
2018-11-23T03:01:35.718Z,128.85
2018-11-23T03:02:39.512Z,119.87
2018-11-23T03:03:43.171Z,108.97
2018-11-23T03:04:46.771Z,123.07
2018-11-23T03:05:50.471Z,124.65
2018-11-23T03:06:54.091Z,112.00
2018-11-23T03:07:57.780Z,98.70
2018-11-23T03:09:01.390Z,105.17
2018-11-23T03:10:06.108Z,112.55
2018-11-23T03:11:09.692Z,121.17
2018-11-23T03:12:13.285Z,118.47
2018-11-23T03:13:16.960Z,118.45
2018-11-23T03:14:20.572Z,118.47
2018-11-23T03:15:24.149Z,96.87
2018-11-23T03:16:27.756Z,103.87
2018-11-23T03:17:32.016Z,111.37
2018-11-23T03:18:35.613Z,107.17
2018-11-23T03:19:39.235Z,116.50
2018-11-23T03:20:42.869Z,114.30
2018-11-23T03:21:46.468Z,108.50
2018-11-23T03:22:50.245Z,126.33
2018-11-23T03:23:54.285Z,124.92
2018-11-23T03:24:57.904Z,113.47
2018-11-23T03:26:01.599Z,119.77
2018-11-23T03:27:05.241Z,119.00
2018-11-23T03:28:08.876Z,109.72
2018-11-23T03:29:12.476Z,126.05
2018-11-23T03:30:17.951Z,109.70
2018-11-23T03:31:22.020Z,119.40
2018-11-23T03:32:25.645Z,116.05
2018-11-23T03:33:29.297Z,118.47
2018-11-23T03:34:32.941Z,129.68
2018-11-23T03:35:36.602Z,121.07
2018-11-23T03:36:40.217Z,106.83
2018-11-23T03:37:44.915Z,120.55
2018-11-23T03:38:47.854Z,111.30
2018-11-23T03:39:51.472Z,119.08
2018-11-23T03:40:55.100Z,125.42
2018-11-23T03:41:58.730Z,125.38
2018-11-23T03:43:02.502Z,117.77
2018-11-23T03:44:06.236Z,123.97
2018-11-23T03:45:11.193Z,118.85
2018-11-23T03:46:14.842Z,125.85
2018-11-23T03:47:18.580Z,117.90
2018-11-23T03:48:22.252Z,120.33
2018-11-23T03:49:25.869Z,121.72
2018-11-23T03:50:29.578Z,118.10
2018-11-23T03:51:33.752Z,126.53
2018-11-23T03:52:37.607Z,124.27
2018-11-23T03:53:41.210Z,131.10
2018-11-23T03:54:44.833Z,117.65
2018-11-23T03:55:48.470Z,109.30
2018-11-23T03:56:52.190Z,123.15
2018-11-23T03:57:55.801Z,109.78
2018-11-23T03:58:59.473Z,122.62
2018-11-23T04:00:03.585Z,120.05
2018-11-23T04:01:07.338Z,122.25
2018-11-23T04:02:10.963Z,120.13
2018-11-23T04:03:14.609Z,117.67
2018-11-23T04:04:18.230Z,116.53
2018-11-23T04:05:21.890Z,122.62
2018-11-23T04:06:25.529Z,124.87
2018-11-23T04:07:29.194Z,122.07
2018-11-23T04:08:32.820Z,119.85
2018-11-23T04:09:36.528Z,121.40
2018-11-23T04:10:40.174Z,121.35
2018-11-23T04:11:43.786Z,128.00
2018-11-23T04:12:47.640Z,115.10
2018-11-23T04:13:51.450Z,105.52
2018-11-23T04:14:55.198Z,118.08
2018-11-23T04:15:58.826Z,125.60
2018-11-23T04:17:02.510Z,124.35
2018-11-23T04:18:06.260Z,116.97
2018-11-23T04:19:09.898Z,123.05
2018-11-23T04:20:15.704Z,121.55
2018-11-23T04:21:19.335Z,126.33
2018-11-23T04:22:22.961Z,123.02
2018-11-23T04:23:26.580Z,127.97
2018-11-23T04:24:30.217Z,131.00
2018-11-23T04:25:33.952Z,125.82
2018-11-23T04:26:37.532Z,120.45
2018-11-23T04:27:41.579Z,126.62
2018-11-23T04:28:45.229Z,128.27
2018-11-23T04:29:48.933Z,131.50
2018-11-23T04:30:52.533Z,121.20
2018-11-23T04:31:56.474Z,135.03
2018-11-23T04:33:00.094Z,122.50
2018-11-23T04:34:03.697Z,129.45
2018-11-23T04:35:09.194Z,120.10
2018-11-23T04:36:12.798Z,139.05
2018-11-23T04:37:16.389Z,124.20
2018-11-23T04:38:20.128Z,129.25
2018-11-23T04:39:23.773Z,124.47
2018-11-23T04:40:27.402Z,133.67
2018-11-23T04:41:31.057Z,126.02
2018-11-23T04:42:34.696Z,132.20
2018-11-23T04:43:38.386Z,117.25
2018-11-23T04:44:42.022Z,126.65
2018-11-23T04:45:45.701Z,116.30
2018-11-23T04:46:49.348Z,125.60
2018-11-23T04:47:52.949Z,121.57
2018-11-23T04:48:56.644Z,132.80
2018-11-23T04:50:01.303Z,118.57
2018-11-23T04:51:04.081Z,118.90
2018-11-23T04:52:07.865Z,121.75
2018-11-23T04:53:11.464Z,133.05
2018-11-23T04:54:15.450Z,119.70
2018-11-23T04:55:19.089Z,117.67
2018-11-23T04:56:22.827Z,122.55
2018-11-23T04:57:26.573Z,123.90
2018-11-23T04:58:30.232Z,126.50
2018-11-23T04:59:33.998Z,125.00
2018-11-23T05:00:37.644Z,113.25
2018-11-23T05:01:41.244Z,118.37
2018-11-23T05:02:45.646Z,112.28
2018-11-23T05:03:49.287Z,134.70
2018-11-23T05:04:52.917Z,131.55
2018-11-23T05:05:56.545Z,130.15
2018-11-23T05:07:00.200Z,121.85
2018-11-23T05:08:03.844Z,118.05
2018-11-23T05:09:08.809Z,129.90
2018-11-23T05:10:13.659Z,129.47
2018-11-23T05:11:17.256Z,124.85
2018-11-23T05:12:21.284Z,126.55
2018-11-23T05:13:24.939Z,119.17
2018-11-23T05:14:28.552Z,129.65
2018-11-23T05:15:32.196Z,137.88
2018-11-23T05:16:35.920Z,116.25
2018-11-23T05:17:39.866Z,120.00
2018-11-23T05:18:43.512Z,114.62
2018-11-23T05:19:47.184Z,127.85
2018-11-23T05:20:50.805Z,114.00
2018-11-23T05:21:54.441Z,125.22
2018-11-23T05:22:58.075Z,124.25
2018-11-23T05:24:01.748Z,116.25
2018-11-23T05:25:06.054Z,129.60
2018-11-23T05:26:09.677Z,132.82
2018-11-23T05:27:13.337Z,114.85
2018-11-23T05:28:16.933Z,115.67
2018-11-23T05:29:27.391Z,132.20
2018-11-23T05:30:31.051Z,120.30
2018-11-23T05:31:34.700Z,126.38
2018-11-23T05:32:38.686Z,116.33
2018-11-23T05:33:42.279Z,122.67
2018-11-23T05:34:45.870Z,111.47
2018-11-23T05:35:49.489Z,121.45
2018-11-23T05:36:53.140Z,124.50
2018-11-23T05:37:56.751Z,120.28
2018-11-23T05:39:00.496Z,125.38
2018-11-23T05:40:04.436Z,119.82
2018-11-23T05:41:08.175Z,123.50
2018-11-23T05:42:11.807Z,116.25
2018-11-23T05:43:15.446Z,121.15
2018-11-23T05:44:19.056Z,118.87
2018-11-23T05:45:23.006Z,126.87
2018-11-23T05:46:26.653Z,118.30
2018-11-23T05:47:30.267Z,119.42
2018-11-23T05:48:33.871Z,127.87
2018-11-23T05:49:37.577Z,128.18
2018-11-23T05:50:41.260Z,124.62
2018-11-23T05:51:44.900Z,130.30
2018-11-23T05:52:48.537Z,123.87
2018-11-23T05:53:52.276Z,114.92
2018-11-23T05:54:55.942Z,131.52
2018-11-23T05:55:59.582Z,129.55
2018-11-23T05:57:03.270Z,120.95
2018-11-23T05:58:06.920Z,125.62
2018-11-23T05:59:10.601Z,133.05
2018-11-23T06:00:18.385Z,127.40
2018-11-23T06:01:22.304Z,128.55
2018-11-23T06:02:26.445Z,122.40
2018-11-23T06:03:30.175Z,133.85
2018-11-23T06:04:33.818Z,134.82
2018-11-23T06:05:37.418Z,125.67
2018-11-23T06:06:42.443Z,126.92
2018-11-23T06:07:44.787Z,131.10
2018-11-23T06:08:48.481Z,129.10
2018-11-23T06:09:52.064Z,126.85
2018-11-23T06:10:55.726Z,126.18
2018-11-23T06:11:59.496Z,132.67
2018-11-23T06:13:03.108Z,128.57
2018-11-23T06:14:06.711Z,123.58
2018-11-23T06:15:12.404Z,134.93
2018-11-23T06:16:16.019Z,136.43
2018-11-23T06:17:19.776Z,129.15
2018-11-23T06:18:23.377Z,120.60
2018-11-23T06:19:27.105Z,126.62
2018-11-23T06:20:30.857Z,135.10
2018-11-23T06:21:34.586Z,142.60
2018-11-23T06:22:45.670Z,134.15
2018-11-23T06:23:49.308Z,128.27
2018-11-23T06:24:53.029Z,126.85
2018-11-23T06:26:09.959Z,139.92
2018-11-23T06:27:13.557Z,125.15
2018-11-23T06:28:17.172Z,129.07
2018-11-23T06:29:20.787Z,131.12
2018-11-23T06:30:24.483Z,130.05
2018-11-23T06:31:28.100Z,132.87
2018-11-23T06:32:43.425Z,130.35
2018-11-23T06:33:47.920Z,137.10
2018-11-23T06:34:51.585Z,123.62
2018-11-23T06:35:55.186Z,132.03
2018-11-23T06:36:58.947Z,134.78
2018-11-23T06:38:02.638Z,137.75
2018-11-23T06:39:08.410Z,139.03
2018-11-23T06:41:10.900Z,126.35
2018-11-23T06:42:14.506Z,140.35
2018-11-23T06:43:18.269Z,125.38
2018-11-23T06:44:27.569Z,130.70
2018-11-23T06:45:33.719Z,130.55
2018-11-23T06:46:37.352Z,142.65
2018-11-23T06:47:41.233Z,140.05
2018-11-23T06:48:44.849Z,134.63
2018-11-23T06:49:48.497Z,152.25
2018-11-23T06:50:52.131Z,134.55
2018-11-23T06:51:55.748Z,145.55
2018-11-23T06:52:59.362Z,160.63
2018-11-23T06:54:02.985Z,148.25
2018-11-23T06:55:06.899Z,141.07
2018-11-23T06:56:10.536Z,134.37
2018-11-23T06:57:14.171Z,154.75
2018-11-23T06:58:17.777Z,146.18
2018-11-23T06:59:21.397Z,136.18
2018-11-23T07:00:25.088Z,148.00
2018-11-23T07:01:28.735Z,133.40
2018-11-23T07:02:32.354Z,139.28
2018-11-23T07:03:35.973Z,133.57
2018-11-23T07:04:39.707Z,141.97
2018-11-23T07:05:43.309Z,138.85
2018-11-23T07:06:46.965Z,141.03
2018-11-23T07:07:50.592Z,131.40
2018-11-23T07:08:54.415Z,138.77
2018-11-23T07:09:58.023Z,136.15
2018-11-23T07:11:02.902Z,129.12
2018-11-23T07:12:06.499Z,132.67
2018-11-23T07:13:10.265Z,134.52
2018-11-23T07:14:13.920Z,132.85
2018-11-23T07:15:17.516Z,134.03
2018-11-23T07:16:21.160Z,143.60
2018-11-23T07:17:25.519Z,139.05
2018-11-23T07:18:29.372Z,133.37
2018-11-23T07:19:33.079Z,133.63
2018-11-23T07:20:36.693Z,134.03
2018-11-23T07:21:40.372Z,147.70
2018-11-23T07:22:44.269Z,133.63
2018-11-23T07:23:47.929Z,141.95
2018-11-23T07:24:51.648Z,140.80
2018-11-23T07:25:55.294Z,135.22
2018-11-23T07:26:58.952Z,140.47
2018-11-23T07:28:02.657Z,142.53
2018-11-23T07:29:06.362Z,132.75
2018-11-23T07:30:16.300Z,132.05
2018-11-23T07:31:19.940Z,131.45
2018-11-23T07:32:23.576Z,141.20
2018-11-23T07:33:27.265Z,142.75
2018-11-23T07:34:30.931Z,130.52
2018-11-23T07:35:34.676Z,139.18
2018-11-23T07:36:38.327Z,129.23
2018-11-23T07:37:41.991Z,141.25
2018-11-23T07:38:45.723Z,134.05
2018-11-23T07:40:00.867Z,138.52
2018-11-23T07:41:16.057Z,140.12
2018-11-23T07:42:22.664Z,135.15
2018-11-23T07:43:26.359Z,129.40
2018-11-23T07:44:30.080Z,121.95
2018-11-23T07:45:33.744Z,125.75
2018-11-23T07:46:37.600Z,131.78
2018-11-23T07:47:41.222Z,123.90
2018-11-23T07:48:44.899Z,137.52
2018-11-23T07:49:48.528Z,134.72
2018-11-23T07:50:52.294Z,131.47
2018-11-23T07:51:55.888Z,134.65
2018-11-23T07:52:59.537Z,122.25
2018-11-23T07:54:03.193Z,127.35
2018-11-23T07:55:08.899Z,118.28
2018-11-23T07:56:12.525Z,125.27
2018-11-23T07:57:16.179Z,130.90
2018-11-23T07:58:19.862Z,142.28
2018-11-23T07:59:23.554Z,136.92
2018-11-23T08:00:27.714Z,127.30
2018-11-23T08:01:31.358Z,132.32
2018-11-23T08:02:35.131Z,142.10
2018-11-23T08:03:38.768Z,137.85
2018-11-23T08:04:43.202Z,129.45
2018-11-23T08:05:46.868Z,142.13
2018-11-23T08:06:50.692Z,138.40
2018-11-23T08:07:54.308Z,123.42
2018-11-23T08:08:57.930Z,130.57
2018-11-23T08:10:00.853Z,144.47
2018-11-23T08:11:10.890Z,130.78
2018-11-23T08:12:14.535Z,133.97
2018-11-23T08:13:18.153Z,125.55
2018-11-23T08:14:22.247Z,139.82
2018-11-23T08:15:27.070Z,126.65
2018-11-23T08:16:30.651Z,126.12
2018-11-23T08:17:34.281Z,130.20
2018-11-23T08:18:37.904Z,129.65
2018-11-23T08:19:47.231Z,130.78
2018-11-23T08:20:45.151Z,133.03
2018-11-23T08:21:48.820Z,123.30
2018-11-23T08:22:52.473Z,127.27
2018-11-23T08:23:56.492Z,115.03
2018-11-23T08:25:00.281Z,136.25
2018-11-23T08:26:03.885Z,126.70
2018-11-23T08:27:07.488Z,124.15
2018-11-23T08:28:11.147Z,131.72
2018-11-23T08:29:14.777Z,123.55
2018-11-23T08:30:21.444Z,131.43
2018-11-23T08:31:25.110Z,133.85
2018-11-23T08:32:28.802Z,133.22
2018-11-23T08:33:32.404Z,127.15
2018-11-23T08:34:36.044Z,124.33
2018-11-23T08:35:39.704Z,113.00
2018-11-23T08:36:43.440Z,123.53
2018-11-23T08:37:47.052Z,115.82
2018-11-23T08:38:50.789Z,117.60
2018-11-23T08:39:54.413Z,123.30
2018-11-23T08:40:58.049Z,132.80
2018-11-23T08:42:01.650Z,130.55
2018-11-23T08:43:05.444Z,119.97
2018-11-23T08:44:09.137Z,135.25
2018-11-23T08:45:14.178Z,134.80
2018-11-23T08:46:17.840Z,133.50
2018-11-23T08:47:21.501Z,132.30
2018-11-23T08:48:25.129Z,123.05
2018-11-23T08:49:28.760Z,129.30
2018-11-23T08:50:32.424Z,128.32
2018-11-23T08:51:36.137Z,131.67
2018-11-23T08:52:39.773Z,119.62
2018-11-23T08:53:43.417Z,130.45
2018-11-23T08:54:47.796Z,139.52
2018-11-23T08:55:51.523Z,128.30
2018-11-23T08:56:55.197Z,126.47
2018-11-23T08:57:58.921Z,124.90
2018-11-23T08:59:02.556Z,135.93
2018-11-23T09:00:09.810Z,130.18
2018-11-23T09:01:13.448Z,121.77
2018-11-23T09:02:17.144Z,119.45
2018-11-23T09:03:20.768Z,115.60
2018-11-23T09:04:24.466Z,132.82
2018-11-23T09:05:28.116Z,123.53
2018-11-23T09:06:31.722Z,137.72
2018-11-23T09:07:35.372Z,123.95
2018-11-23T09:08:39.013Z,114.88
2018-11-23T09:09:42.677Z,124.85
2018-11-23T09:10:46.336Z,123.22
2018-11-23T09:11:50.071Z,119.17
2018-11-23T09:12:56.319Z,125.55
2018-11-23T09:13:59.908Z,122.72
2018-11-23T09:15:03.562Z,120.92
2018-11-23T09:16:07.546Z,108.75
2018-11-23T09:17:11.164Z,114.70
2018-11-23T09:18:14.783Z,110.30
2018-11-23T09:19:18.476Z,107.97
2018-11-23T09:20:22.368Z,111.95
2018-11-23T09:21:26.092Z,112.65
2018-11-23T09:22:29.943Z,104.85
2018-11-23T09:23:33.605Z,105.25
2018-11-23T09:24:37.265Z,100.72
2018-11-23T09:25:40.919Z,104.78
2018-11-23T09:26:44.557Z,98.40
2018-11-23T09:27:48.228Z,93.87
2018-11-23T09:28:51.849Z,98.50
2018-11-23T09:29:55.529Z,91.75
2018-11-23T09:30:59.204Z,94.52
2018-11-23T09:32:02.871Z,98.42
2018-11-23T09:33:06.512Z,95.75
2018-11-23T09:34:10.304Z,93.17
2018-11-23T09:35:14.154Z,94.50
2018-11-23T09:36:17.790Z,93.45
2018-11-23T09:37:21.508Z,92.42
2018-11-23T09:38:25.173Z,95.65
2018-11-23T09:39:28.804Z,93.33
2018-11-23T09:40:32.484Z,93.27
2018-11-23T09:41:36.196Z,95.72
2018-11-23T09:42:40.672Z,92.02
2018-11-23T09:43:44.334Z,87.60
2018-11-23T09:44:47.959Z,93.67
2018-11-23T09:45:51.642Z,79.45
2018-11-23T09:46:55.546Z,81.17
2018-11-23T09:48:00.562Z,79.97
2018-11-23T09:49:04.562Z,100.40
2018-11-23T09:50:10.816Z,87.90
2018-11-23T09:51:14.480Z,86.32
2018-11-23T09:52:18.300Z,83.35
2018-11-23T09:53:22.003Z,77.00
2018-11-23T09:54:25.599Z,82.42
2018-11-23T09:55:32.903Z,83.95
2018-11-23T09:56:36.714Z,85.00
2018-11-23T09:57:40.581Z,82.70
2018-11-23T09:58:44.253Z,78.72
2018-11-23T09:59:47.932Z,78.87
2018-11-23T10:00:51.894Z,84.07
2018-11-23T10:01:55.564Z,89.20
2018-11-23T10:02:59.677Z,84.42
2018-11-23T10:04:03.280Z,94.55
2018-11-23T10:05:09.429Z,98.92
2018-11-23T10:06:13.031Z,84.25
2018-11-23T10:07:16.660Z,80.15
2018-11-23T10:08:20.459Z,83.37
2018-11-23T10:09:24.140Z,82.50
2018-11-23T10:10:28.838Z,71.87
2018-11-23T10:11:33.595Z,76.60
2018-11-23T10:12:37.842Z,77.22
2018-11-23T10:13:41.643Z,78.85
2018-11-23T10:14:45.285Z,82.47
2018-11-23T10:15:48.928Z,83.07
2018-11-23T10:16:53.062Z,86.10
2018-11-23T10:17:57.028Z,74.75
2018-11-23T10:19:00.746Z,82.22
2018-11-23T10:20:06.094Z,84.75
2018-11-23T10:21:09.849Z,81.02
2018-11-23T10:22:13.458Z,74.30
2018-11-23T10:23:17.061Z,81.12
2018-11-23T10:24:20.748Z,79.32
2018-11-23T10:25:26.269Z,88.85
2018-11-23T10:26:29.902Z,81.90
2018-11-23T10:27:33.557Z,82.57
2018-11-23T10:28:37.169Z,88.58
2018-11-23T10:29:40.824Z,82.78
2018-11-23T10:30:44.617Z,92.10
2018-11-23T10:31:48.314Z,88.15
2018-11-23T10:32:53.181Z,78.22
2018-11-23T10:33:56.836Z,82.62
2018-11-23T10:35:00.471Z,79.67
2018-11-23T10:36:04.114Z,77.87
2018-11-23T10:37:07.723Z,79.85
2018-11-23T10:38:11.436Z,88.50
2018-11-23T10:39:15.680Z,74.40
2018-11-23T10:40:20.672Z,80.28
2018-11-23T10:41:24.290Z,87.65
2018-11-23T10:42:27.944Z,87.85
2018-11-23T10:43:31.559Z,86.97
2018-11-23T10:44:35.145Z,85.05
2018-11-23T10:45:39.007Z,87.33
2018-11-23T10:46:42.637Z,80.47
2018-11-23T10:47:46.859Z,85.77
2018-11-23T10:48:50.499Z,81.35
2018-11-23T10:49:54.563Z,82.85
2018-11-23T10:50:58.238Z,86.75
2018-11-23T10:52:02.045Z,87.53
2018-11-23T10:53:05.791Z,76.65
2018-11-23T10:54:09.424Z,84.28
2018-11-23T10:55:15.472Z,78.90
2018-11-23T10:56:19.065Z,77.75
2018-11-23T10:57:22.709Z,82.85
2018-11-23T10:58:26.348Z,77.80
2018-11-23T10:59:29.978Z,81.53
2018-11-23T11:00:39.093Z,85.65
2018-11-23T11:01:48.154Z,83.95
2018-11-23T11:02:58.417Z,90.70
2018-11-23T11:04:07.552Z,80.38
2018-11-23T11:05:16.658Z,77.00
2018-11-23T11:06:25.827Z,79.37
2018-11-23T11:07:29.489Z,82.80
2018-11-23T11:08:33.209Z,90.65
2018-11-23T11:09:37.354Z,80.92
2018-11-23T11:10:40.994Z,92.05
2018-11-23T11:11:44.632Z,84.22
2018-11-23T11:12:48.261Z,85.25
2018-11-23T11:13:51.958Z,85.83
2018-11-23T11:14:55.592Z,83.25
2018-11-23T11:15:59.267Z,96.00
2018-11-23T11:17:02.921Z,89.58
2018-11-23T11:18:06.659Z,94.13
2018-11-23T11:19:10.281Z,97.72
2018-11-23T11:20:13.962Z,90.17
2018-11-23T11:21:17.579Z,84.42
2018-11-23T11:22:21.187Z,92.82
2018-11-23T11:23:26.540Z,94.83
2018-11-23T11:24:30.211Z,89.13
2018-11-23T11:25:33.803Z,99.92
2018-11-23T11:26:37.424Z,91.82
2018-11-23T11:27:41.277Z,89.97
2018-11-23T11:28:44.932Z,101.27
2018-11-23T11:29:48.685Z,94.28
2018-11-23T11:30:52.338Z,100.87
2018-11-23T11:31:55.979Z,94.13
2018-11-23T11:32:59.633Z,93.72
2018-11-23T11:34:03.275Z,87.25
2018-11-23T11:35:07.541Z,95.57
2018-11-23T11:36:11.244Z,110.15
2018-11-23T11:37:14.936Z,111.92
2018-11-23T11:38:19.111Z,104.90
2018-11-23T11:39:22.728Z,91.80
2018-11-23T11:40:26.411Z,116.08
2018-11-23T11:41:30.017Z,97.33
2018-11-23T11:42:33.626Z,110.28
2018-11-23T11:43:37.918Z,100.80
2018-11-23T11:44:41.700Z,102.15
2018-11-23T11:45:45.401Z,102.92
2018-11-23T11:46:49.041Z,105.72
2018-11-23T11:47:52.706Z,107.17
2018-11-23T11:48:56.462Z,114.17
2018-11-23T11:50:00.118Z,100.80
2018-11-23T11:51:03.838Z,108.52
2018-11-23T11:52:07.409Z,110.03
2018-11-23T11:53:11.047Z,106.37
2018-11-23T11:54:14.668Z,101.65
2018-11-23T11:55:19.707Z,120.75
2018-11-23T11:56:23.324Z,103.47
2018-11-23T11:57:27.075Z,114.45
2018-11-23T11:58:30.801Z,105.37
2018-11-23T11:59:34.509Z,109.27
2018-11-23T12:00:38.131Z,114.22
2018-11-23T12:01:42.549Z,105.78
2018-11-23T12:02:46.582Z,96.22
2018-11-23T12:03:50.242Z,112.52
2018-11-23T12:04:53.867Z,109.45
2018-11-23T12:05:57.607Z,99.05
2018-11-23T12:07:01.305Z,106.55
2018-11-23T12:08:06.556Z,112.00
2018-11-23T12:09:11.181Z,114.12
2018-11-23T12:10:16.978Z,105.37
2018-11-23T12:11:20.840Z,113.52
2018-11-23T12:12:24.546Z,114.90
2018-11-23T12:13:28.243Z,113.72
2018-11-23T12:14:32.099Z,113.25
2018-11-23T12:15:35.745Z,114.88
2018-11-23T12:16:39.396Z,121.42
2018-11-23T12:17:43.384Z,110.95
2018-11-23T12:18:47.169Z,116.30
2018-11-23T12:19:50.877Z,116.28
2018-11-23T12:20:54.513Z,122.78
2018-11-23T12:21:58.353Z,116.33
2018-11-23T12:23:02.155Z,115.35
2018-11-23T12:24:05.939Z,118.10
2018-11-23T12:25:09.934Z,120.33
2018-11-23T12:26:13.595Z,120.42
2018-11-23T12:27:17.545Z,124.25
2018-11-23T12:28:21.571Z,115.92
2018-11-23T12:29:25.173Z,123.67
2018-11-23T12:30:28.833Z,115.60
2018-11-23T12:31:32.447Z,131.82
2018-11-23T12:32:36.097Z,159.32
2018-11-23T12:33:39.802Z,127.25
2018-11-23T12:34:43.702Z,121.70
2018-11-23T12:35:47.465Z,123.92
2018-11-23T12:36:51.146Z,114.22
2018-11-23T12:37:54.785Z,120.17
2018-11-23T12:38:58.513Z,124.75
2018-11-23T12:40:02.537Z,116.62
2018-11-23T12:41:06.162Z,109.90
2018-11-23T12:42:10.022Z,120.65
2018-11-23T12:43:13.712Z,125.90
2018-11-23T12:44:17.325Z,123.75
2018-11-23T12:45:22.551Z,124.72
2018-11-23T12:46:26.554Z,118.87
2018-11-23T12:47:30.284Z,119.53
2018-11-23T12:48:33.964Z,115.00
2018-11-23T12:49:37.749Z,115.95
2018-11-23T12:50:41.411Z,122.58
2018-11-23T12:51:45.078Z,119.95
2018-11-23T12:52:48.754Z,129.30
2018-11-23T12:53:52.398Z,113.25
2018-11-23T12:54:56.028Z,134.37
2018-11-23T12:56:00.313Z,129.95
2018-11-23T12:57:04.024Z,115.92
2018-11-23T12:58:07.683Z,131.57
2018-11-23T12:59:11.895Z,130.52
2018-11-23T13:00:20.466Z,133.00
2018-11-23T13:01:24.192Z,127.67
2018-11-23T13:02:27.941Z,127.35
2018-11-23T13:03:31.565Z,133.70
2018-11-23T13:04:36.191Z,125.85
2018-11-23T13:05:39.889Z,133.05
2018-11-23T13:06:43.526Z,139.80
2018-11-23T13:07:47.206Z,128.57
2018-11-23T13:08:50.941Z,136.90
2018-11-23T13:09:54.919Z,133.55
2018-11-23T13:10:58.570Z,144.97
2018-11-23T13:12:02.479Z,154.57
2018-11-23T13:13:06.838Z,128.35
2018-11-23T13:14:10.689Z,134.18
2018-11-23T13:15:14.424Z,134.50
2018-11-23T13:16:18.088Z,133.72
2018-11-23T13:17:22.309Z,140.65
2018-11-23T13:18:26.295Z,136.32
2018-11-23T13:19:29.937Z,157.85
2018-11-23T13:20:33.556Z,128.50
2018-11-23T13:21:37.171Z,138.95
2018-11-23T13:22:40.773Z,132.55
2018-11-23T13:23:44.461Z,131.80
2018-11-23T13:24:48.323Z,146.82
2018-11-23T13:25:51.960Z,141.90
2018-11-23T13:26:55.623Z,139.30
2018-11-23T13:27:59.589Z,166.90